sensor_id;sensor_type;location;lat;lon;timestamp;temperature;humidity
6293;DHT22;3179;54.350;10.102;2023-05-07T00:00:21;10.60;99.90
6293;DHT22;3179;54.350;10.102;2023-05-07T00:02:48;10.60;99.90
6293;DHT22;3179;54.350;10.102;2023-05-07T00:05:15;10.60;99.90
6293;DHT22;3179;54.350;10.102;2023-05-07T00:07:43;10.60;99.90
6293;DHT22;3179;54.350;10.102;2023-05-07T00:10:10;10.60;99.90
6293;DHT22;3179;54.350;10.102;2023-05-07T00:12:37;10.60;99.90
6293;DHT22;3179;54.350;10.102;2023-05-07T00:15:05;10.50;99.90
6293;DHT22;3179;54.350;10.102;2023-05-07T00:17:33;10.60;99.90
6293;DHT22;3179;54.350;10.102;2023-05-07T00:20:00;10.50;99.90
6293;DHT22;3179;54.350;10.102;2023-05-07T00:22:27;10.50;99.90
6293;DHT22;3179;54.350;10.102;2023-05-07T00:24:56;10.50;99.90
6293;DHT22;3179;54.350;10.102;2023-05-07T00:27:24;10.60;99.90
6293;DHT22;3179;54.350;10.102;2023-05-07T00:29:51;10.60;99.90
6293;DHT22;3179;54.350;10.102;2023-05-07T00:32:17;10.60;99.90
6293;DHT22;3179;54.350;10.102;2023-05-07T00:34:44;10.60;99.90
6293;DHT22;3179;54.350;10.102;2023-05-07T00:37:11;10.60;99.90
6293;DHT22;3179;54.350;10.102;2023-05-07T00:39:38;10.60;99.90
6293;DHT22;3179;54.350;10.102;2023-05-07T00:42:06;10.60;99.90
6293;DHT22;3179;54.350;10.102;2023-05-07T00:44:33;10.60;99.90
6293;DHT22;3179;54.350;10.102;2023-05-07T00:47:02;10.60;99.90
6293;DHT22;3179;54.350;10.102;2023-05-07T00:49:36;10.60;99.90
6293;DHT22;3179;54.350;10.102;2023-05-07T00:52:04;10.60;99.90
6293;DHT22;3179;54.350;10.102;2023-05-07T00:54:32;10.60;99.90
6293;DHT22;3179;54.350;10.102;2023-05-07T00:56:59;10.60;99.90
6293;DHT22;3179;54.350;10.102;2023-05-07T00:59:28;10.60;99.90
6293;DHT22;3179;54.350;10.102;2023-05-07T01:01:54;10.60;99.90
6293;DHT22;3179;54.350;10.102;2023-05-07T01:04:21;10.60;99.90
6293;DHT22;3179;54.350;10.102;2023-05-07T01:06:49;10.60;99.90
6293;DHT22;3179;54.350;10.102;2023-05-07T01:09:16;10.70;99.90
6293;DHT22;3179;54.350;10.102;2023-05-07T01:11:43;10.60;99.90
6293;DHT22;3179;54.350;10.102;2023-05-07T01:14:10;10.70;99.90
6293;DHT22;3179;54.350;10.102;2023-05-07T01:16:39;10.60;99.90
6293;DHT22;3179;54.350;10.102;2023-05-07T01:19:08;10.70;99.90
6293;DHT22;3179;54.350;10.102;2023-05-07T01:21:37;10.70;99.90
6293;DHT22;3179;54.350;10.102;2023-05-07T01:24:06;10.70;99.90
6293;DHT22;3179;54.350;10.102;2023-05-07T01:26:33;10.70;99.90
6293;DHT22;3179;54.350;10.102;2023-05-07T01:29:00;10.70;99.90
6293;DHT22;3179;54.350;10.102;2023-05-07T01:31:27;10.70;99.90
6293;DHT22;3179;54.350;10.102;2023-05-07T01:33:54;10.70;99.90
6293;DHT22;3179;54.350;10.102;2023-05-07T01:36:24;10.70;99.90
6293;DHT22;3179;54.350;10.102;2023-05-07T01:38:53;10.70;99.90
6293;DHT22;3179;54.350;10.102;2023-05-07T01:41:21;10.70;99.90
6293;DHT22;3179;54.350;10.102;2023-05-07T01:43:50;10.70;99.90
6293;DHT22;3179;54.350;10.102;2023-05-07T01:46:17;10.70;99.90
6293;DHT22;3179;54.350;10.102;2023-05-07T01:48:45;10.70;99.90
6293;DHT22;3179;54.350;10.102;2023-05-07T01:51:12;10.60;99.90
6293;DHT22;3179;54.350;10.102;2023-05-07T01:53:39;10.70;99.90
6293;DHT22;3179;54.350;10.102;2023-05-07T01:56:06;10.70;99.90
6293;DHT22;3179;54.350;10.102;2023-05-07T01:58:34;10.60;99.90
6293;DHT22;3179;54.350;10.102;2023-05-07T02:01:01;10.70;99.90
6293;DHT22;3179;54.350;10.102;2023-05-07T02:03:28;10.70;99.90
6293;DHT22;3179;54.350;10.102;2023-05-07T02:05:56;10.70;99.90
6293;DHT22;3179;54.350;10.102;2023-05-07T02:08:22;10.70;99.90
6293;DHT22;3179;54.350;10.102;2023-05-07T02:10:49;10.70;99.90
6293;DHT22;3179;54.350;10.102;2023-05-07T02:13:16;10.70;99.90
6293;DHT22;3179;54.350;10.102;2023-05-07T02:15:45;10.70;99.90
6293;DHT22;3179;54.350;10.102;2023-05-07T02:18:16;10.70;99.90
6293;DHT22;3179;54.350;10.102;2023-05-07T02:20:43;10.70;99.90
6293;DHT22;3179;54.350;10.102;2023-05-07T02:23:09;10.70;99.90
6293;DHT22;3179;54.350;10.102;2023-05-07T02:25:36;10.70;99.90
6293;DHT22;3179;54.350;10.102;2023-05-07T02:28:03;10.70;99.90
6293;DHT22;3179;54.350;10.102;2023-05-07T02:30:30;10.70;99.90
6293;DHT22;3179;54.350;10.102;2023-05-07T02:32:58;10.70;99.90
6293;DHT22;3179;54.350;10.102;2023-05-07T02:35:25;10.70;99.90
6293;DHT22;3179;54.350;10.102;2023-05-07T02:37:52;10.70;99.90
6293;DHT22;3179;54.350;10.102;2023-05-07T02:40:19;10.70;99.90
6293;DHT22;3179;54.350;10.102;2023-05-07T02:42:46;10.70;99.90
6293;DHT22;3179;54.350;10.102;2023-05-07T02:45:13;10.70;99.90
6293;DHT22;3179;54.350;10.102;2023-05-07T02:47:40;10.70;99.90
6293;DHT22;3179;54.350;10.102;2023-05-07T02:50:09;10.70;99.90
6293;DHT22;3179;54.350;10.102;2023-05-07T02:52:37;10.70;99.90
6293;DHT22;3179;54.350;10.102;2023-05-07T02:55:04;10.70;99.90
6293;DHT22;3179;54.350;10.102;2023-05-07T02:57:31;10.70;99.90
6293;DHT22;3179;54.350;10.102;2023-05-07T02:59:58;10.70;99.90
6293;DHT22;3179;54.350;10.102;2023-05-07T03:02:25;10.70;99.90
6293;DHT22;3179;54.350;10.102;2023-05-07T03:04:52;10.70;99.90
6293;DHT22;3179;54.350;10.102;2023-05-07T03:07:20;10.70;99.90
6293;DHT22;3179;54.350;10.102;2023-05-07T03:09:46;10.70;99.90
6293;DHT22;3179;54.350;10.102;2023-05-07T03:12:13;10.70;99.90
6293;DHT22;3179;54.350;10.102;2023-05-07T03:14:40;10.70;99.90
6293;DHT22;3179;54.350;10.102;2023-05-07T03:17:07;10.70;99.90
6293;DHT22;3179;54.350;10.102;2023-05-07T03:19:33;10.70;99.90
6293;DHT22;3179;54.350;10.102;2023-05-07T03:22:00;10.70;99.90
6293;DHT22;3179;54.350;10.102;2023-05-07T03:24:28;10.70;99.90
6293;DHT22;3179;54.350;10.102;2023-05-07T03:26:55;10.70;99.90
6293;DHT22;3179;54.350;10.102;2023-05-07T03:29:23;10.70;99.90
6293;DHT22;3179;54.350;10.102;2023-05-07T03:31:50;10.70;99.90
6293;DHT22;3179;54.350;10.102;2023-05-07T03:34:17;10.70;99.90
6293;DHT22;3179;54.350;10.102;2023-05-07T03:36:47;10.70;99.90
6293;DHT22;3179;54.350;10.102;2023-05-07T03:39:14;10.70;99.90
6293;DHT22;3179;54.350;10.102;2023-05-07T03:41:42;10.70;99.90
6293;DHT22;3179;54.350;10.102;2023-05-07T03:44:09;10.70;99.90
6293;DHT22;3179;54.350;10.102;2023-05-07T03:46:35;10.70;99.90
6293;DHT22;3179;54.350;10.102;2023-05-07T03:49:02;10.70;99.90
6293;DHT22;3179;54.350;10.102;2023-05-07T03:51:29;10.70;99.90
6293;DHT22;3179;54.350;10.102;2023-05-07T03:53:56;10.70;99.90
6293;DHT22;3179;54.350;10.102;2023-05-07T03:56:23;10.70;99.90
6293;DHT22;3179;54.350;10.102;2023-05-07T03:58:53;10.70;99.90
6293;DHT22;3179;54.350;10.102;2023-05-07T04:01:20;10.80;99.90
6293;DHT22;3179;54.350;10.102;2023-05-07T04:03:46;10.70;99.90
6293;DHT22;3179;54.350;10.102;2023-05-07T04:06:15;10.80;99.90
6293;DHT22;3179;54.350;10.102;2023-05-07T04:08:42;10.80;99.90
6293;DHT22;3179;54.350;10.102;2023-05-07T04:11:08;10.80;99.90
6293;DHT22;3179;54.350;10.102;2023-05-07T04:13:35;10.80;99.90
6293;DHT22;3179;54.350;10.102;2023-05-07T04:16:04;10.80;99.90
6293;DHT22;3179;54.350;10.102;2023-05-07T04:18:31;10.80;99.90
6293;DHT22;3179;54.350;10.102;2023-05-07T04:20:58;10.80;99.90
6293;DHT22;3179;54.350;10.102;2023-05-07T04:23:25;10.80;99.90
6293;DHT22;3179;54.350;10.102;2023-05-07T04:25:51;10.80;99.90
6293;DHT22;3179;54.350;10.102;2023-05-07T04:28:19;10.80;99.90
6293;DHT22;3179;54.350;10.102;2023-05-07T04:30:47;10.80;99.90
6293;DHT22;3179;54.350;10.102;2023-05-07T04:33:15;10.80;99.90
6293;DHT22;3179;54.350;10.102;2023-05-07T04:35:42;10.80;99.90
6293;DHT22;3179;54.350;10.102;2023-05-07T04:38:09;10.80;99.90
6293;DHT22;3179;54.350;10.102;2023-05-07T04:40:36;10.80;99.90
6293;DHT22;3179;54.350;10.102;2023-05-07T04:43:04;10.80;99.90
6293;DHT22;3179;54.350;10.102;2023-05-07T04:45:31;10.80;99.90
6293;DHT22;3179;54.350;10.102;2023-05-07T04:47:58;10.80;99.90
6293;DHT22;3179;54.350;10.102;2023-05-07T04:50:26;10.80;99.90
6293;DHT22;3179;54.350;10.102;2023-05-07T04:52:53;10.90;99.90
6293;DHT22;3179;54.350;10.102;2023-05-07T04:55:20;10.90;99.90
6293;DHT22;3179;54.350;10.102;2023-05-07T04:57:46;10.90;99.90
6293;DHT22;3179;54.350;10.102;2023-05-07T05:00:14;10.90;99.90
6293;DHT22;3179;54.350;10.102;2023-05-07T05:02:42;10.90;99.90
6293;DHT22;3179;54.350;10.102;2023-05-07T05:05:08;10.90;99.90
6293;DHT22;3179;54.350;10.102;2023-05-07T05:07:37;10.90;99.90
6293;DHT22;3179;54.350;10.102;2023-05-07T05:10:05;10.90;99.90
6293;DHT22;3179;54.350;10.102;2023-05-07T05:12:32;10.90;99.90
6293;DHT22;3179;54.350;10.102;2023-05-07T05:14:59;10.90;99.90
6293;DHT22;3179;54.350;10.102;2023-05-07T05:17:26;10.90;99.90
6293;DHT22;3179;54.350;10.102;2023-05-07T05:19:52;10.90;99.90
6293;DHT22;3179;54.350;10.102;2023-05-07T05:22:19;10.90;99.90
6293;DHT22;3179;54.350;10.102;2023-05-07T05:24:47;10.90;99.90
6293;DHT22;3179;54.350;10.102;2023-05-07T05:27:14;10.90;99.90
6293;DHT22;3179;54.350;10.102;2023-05-07T05:29:41;10.90;99.90
6293;DHT22;3179;54.350;10.102;2023-05-07T05:32:07;11.00;99.90
6293;DHT22;3179;54.350;10.102;2023-05-07T05:34:34;11.00;99.90
6293;DHT22;3179;54.350;10.102;2023-05-07T05:37:01;11.00;99.90
6293;DHT22;3179;54.350;10.102;2023-05-07T05:39:28;11.00;99.90
6293;DHT22;3179;54.350;10.102;2023-05-07T05:41:56;11.00;99.90
6293;DHT22;3179;54.350;10.102;2023-05-07T05:44:23;11.00;99.90
6293;DHT22;3179;54.350;10.102;2023-05-07T05:46:49;11.00;99.90
6293;DHT22;3179;54.350;10.102;2023-05-07T05:49:16;11.00;99.90
6293;DHT22;3179;54.350;10.102;2023-05-07T05:51:43;11.00;99.90
6293;DHT22;3179;54.350;10.102;2023-05-07T05:54:10;11.00;99.90
6293;DHT22;3179;54.350;10.102;2023-05-07T05:56:37;11.00;99.90
6293;DHT22;3179;54.350;10.102;2023-05-07T05:59:05;11.10;99.90
6293;DHT22;3179;54.350;10.102;2023-05-07T06:01:32;11.10;99.90
6293;DHT22;3179;54.350;10.102;2023-05-07T06:03:59;11.10;99.90
6293;DHT22;3179;54.350;10.102;2023-05-07T06:06:26;11.20;99.90
6293;DHT22;3179;54.350;10.102;2023-05-07T06:08:53;11.20;99.90
6293;DHT22;3179;54.350;10.102;2023-05-07T06:11:20;11.20;99.90
6293;DHT22;3179;54.350;10.102;2023-05-07T06:13:47;11.20;99.90
6293;DHT22;3179;54.350;10.102;2023-05-07T06:16:15;11.30;99.90
6293;DHT22;3179;54.350;10.102;2023-05-07T06:18:42;11.30;99.90
6293;DHT22;3179;54.350;10.102;2023-05-07T06:21:09;11.30;99.90
6293;DHT22;3179;54.350;10.102;2023-05-07T06:23:36;11.30;99.90
6293;DHT22;3179;54.350;10.102;2023-05-07T06:26:03;11.30;99.90
6293;DHT22;3179;54.350;10.102;2023-05-07T06:28:30;11.30;99.90
6293;DHT22;3179;54.350;10.102;2023-05-07T06:31:11;11.30;99.90
6293;DHT22;3179;54.350;10.102;2023-05-07T06:33:39;11.40;99.90
6293;DHT22;3179;54.350;10.102;2023-05-07T06:36:06;11.40;99.90
6293;DHT22;3179;54.350;10.102;2023-05-07T06:38:33;11.40;99.90
6293;DHT22;3179;54.350;10.102;2023-05-07T06:41:00;11.40;99.90
6293;DHT22;3179;54.350;10.102;2023-05-07T06:43:27;11.40;99.90
6293;DHT22;3179;54.350;10.102;2023-05-07T06:45:53;11.40;99.90
6293;DHT22;3179;54.350;10.102;2023-05-07T06:48:20;11.40;99.90
6293;DHT22;3179;54.350;10.102;2023-05-07T06:50:48;11.50;99.90
6293;DHT22;3179;54.350;10.102;2023-05-07T06:53:15;11.50;99.90
6293;DHT22;3179;54.350;10.102;2023-05-07T06:55:42;11.50;99.90
6293;DHT22;3179;54.350;10.102;2023-05-07T06:58:08;11.60;99.90
6293;DHT22;3179;54.350;10.102;2023-05-07T07:00:35;11.60;99.90
6293;DHT22;3179;54.350;10.102;2023-05-07T07:03:02;11.60;99.90
6293;DHT22;3179;54.350;10.102;2023-05-07T07:05:29;11.60;99.90
6293;DHT22;3179;54.350;10.102;2023-05-07T07:07:57;11.60;99.90
6293;DHT22;3179;54.350;10.102;2023-05-07T07:10:24;11.70;99.90
6293;DHT22;3179;54.350;10.102;2023-05-07T07:12:51;11.70;99.90
6293;DHT22;3179;54.350;10.102;2023-05-07T07:15:19;11.70;99.90
6293;DHT22;3179;54.350;10.102;2023-05-07T07:17:46;11.80;99.90
6293;DHT22;3179;54.350;10.102;2023-05-07T07:20:13;11.80;99.90
6293;DHT22;3179;54.350;10.102;2023-05-07T07:22:39;11.90;99.90
6293;DHT22;3179;54.350;10.102;2023-05-07T07:25:08;11.90;99.90
6293;DHT22;3179;54.350;10.102;2023-05-07T07:27:36;11.90;99.90
6293;DHT22;3179;54.350;10.102;2023-05-07T07:30:04;12.00;99.90
6293;DHT22;3179;54.350;10.102;2023-05-07T07:32:31;12.00;99.90
6293;DHT22;3179;54.350;10.102;2023-05-07T07:34:58;12.00;99.90
6293;DHT22;3179;54.350;10.102;2023-05-07T07:37:25;12.00;99.90
6293;DHT22;3179;54.350;10.102;2023-05-07T07:39:52;12.00;99.90
6293;DHT22;3179;54.350;10.102;2023-05-07T07:42:20;12.10;99.90
6293;DHT22;3179;54.350;10.102;2023-05-07T07:44:47;12.20;99.90
6293;DHT22;3179;54.350;10.102;2023-05-07T07:47:14;12.20;99.90
6293;DHT22;3179;54.350;10.102;2023-05-07T07:49:41;12.20;99.90
6293;DHT22;3179;54.350;10.102;2023-05-07T07:52:07;12.20;99.90
6293;DHT22;3179;54.350;10.102;2023-05-07T07:54:34;12.20;99.90
6293;DHT22;3179;54.350;10.102;2023-05-07T07:57:01;12.30;99.90
6293;DHT22;3179;54.350;10.102;2023-05-07T07:59:29;12.30;99.90
6293;DHT22;3179;54.350;10.102;2023-05-07T08:01:56;12.30;99.90
6293;DHT22;3179;54.350;10.102;2023-05-07T08:04:23;12.40;99.90
6293;DHT22;3179;54.350;10.102;2023-05-07T08:06:49;12.40;99.90
6293;DHT22;3179;54.350;10.102;2023-05-07T08:09:16;12.50;99.90
6293;DHT22;3179;54.350;10.102;2023-05-07T08:11:43;12.50;99.90
6293;DHT22;3179;54.350;10.102;2023-05-07T08:14:10;12.50;99.90
6293;DHT22;3179;54.350;10.102;2023-05-07T08:16:38;12.50;99.90
6293;DHT22;3179;54.350;10.102;2023-05-07T08:19:05;12.50;99.90
6293;DHT22;3179;54.350;10.102;2023-05-07T08:21:32;12.50;99.90
6293;DHT22;3179;54.350;10.102;2023-05-07T08:23:59;12.60;99.90
6293;DHT22;3179;54.350;10.102;2023-05-07T08:26:25;12.60;99.90
6293;DHT22;3179;54.350;10.102;2023-05-07T08:28:52;12.70;99.90
6293;DHT22;3179;54.350;10.102;2023-05-07T08:31:19;12.70;99.90
6293;DHT22;3179;54.350;10.102;2023-05-07T08:33:47;12.90;99.90
6293;DHT22;3179;54.350;10.102;2023-05-07T08:36:14;12.90;99.90
6293;DHT22;3179;54.350;10.102;2023-05-07T08:38:40;13.00;99.90
6293;DHT22;3179;54.350;10.102;2023-05-07T08:41:10;13.00;99.90
6293;DHT22;3179;54.350;10.102;2023-05-07T08:43:38;13.00;99.90
6293;DHT22;3179;54.350;10.102;2023-05-07T08:46:09;13.00;99.90
6293;DHT22;3179;54.350;10.102;2023-05-07T08:48:36;13.00;99.90
6293;DHT22;3179;54.350;10.102;2023-05-07T08:51:05;13.10;99.90
6293;DHT22;3179;54.350;10.102;2023-05-07T08:53:33;13.10;99.90
6293;DHT22;3179;54.350;10.102;2023-05-07T08:56:00;13.20;99.90
6293;DHT22;3179;54.350;10.102;2023-05-07T08:58:26;13.30;99.90
6293;DHT22;3179;54.350;10.102;2023-05-07T09:00:54;13.30;99.90
6293;DHT22;3179;54.350;10.102;2023-05-07T09:03:21;13.40;99.90
6293;DHT22;3179;54.350;10.102;2023-05-07T09:05:47;13.30;99.90
6293;DHT22;3179;54.350;10.102;2023-05-07T09:08:15;13.40;99.90
6293;DHT22;3179;54.350;10.102;2023-05-07T09:10:42;13.50;99.90
6293;DHT22;3179;54.350;10.102;2023-05-07T09:13:09;13.50;99.90
6293;DHT22;3179;54.350;10.102;2023-05-07T09:15:38;13.50;99.90
6293;DHT22;3179;54.350;10.102;2023-05-07T09:18:05;13.60;99.90
6293;DHT22;3179;54.350;10.102;2023-05-07T09:20:32;13.60;99.90
6293;DHT22;3179;54.350;10.102;2023-05-07T09:22:58;13.60;99.90
6293;DHT22;3179;54.350;10.102;2023-05-07T09:25:31;13.60;99.90
6293;DHT22;3179;54.350;10.102;2023-05-07T09:27:59;13.70;99.90
6293;DHT22;3179;54.350;10.102;2023-05-07T09:30:28;13.60;99.90
6293;DHT22;3179;54.350;10.102;2023-05-07T09:32:55;13.70;99.90
6293;DHT22;3179;54.350;10.102;2023-05-07T09:35:22;13.70;99.90
6293;DHT22;3179;54.350;10.102;2023-05-07T09:37:52;13.70;99.90
6293;DHT22;3179;54.350;10.102;2023-05-07T09:40:21;13.80;99.90
6293;DHT22;3179;54.350;10.102;2023-05-07T09:42:49;13.80;99.90
6293;DHT22;3179;54.350;10.102;2023-05-07T09:45:21;13.90;99.90
6293;DHT22;3179;54.350;10.102;2023-05-07T09:47:48;13.90;99.90
6293;DHT22;3179;54.350;10.102;2023-05-07T09:50:16;14.00;99.90
6293;DHT22;3179;54.350;10.102;2023-05-07T09:52:44;14.00;99.90
6293;DHT22;3179;54.350;10.102;2023-05-07T09:55:12;14.10;99.90
6293;DHT22;3179;54.350;10.102;2023-05-07T09:57:40;14.00;99.90
6293;DHT22;3179;54.350;10.102;2023-05-07T10:00:11;14.10;99.90
6293;DHT22;3179;54.350;10.102;2023-05-07T10:02:39;14.20;99.90
6293;DHT22;3179;54.350;10.102;2023-05-07T10:05:12;14.20;99.90
6293;DHT22;3179;54.350;10.102;2023-05-07T10:07:40;14.30;99.90
6293;DHT22;3179;54.350;10.102;2023-05-07T10:10:07;14.40;99.90
6293;DHT22;3179;54.350;10.102;2023-05-07T10:12:35;14.50;99.90
6293;DHT22;3179;54.350;10.102;2023-05-07T10:15:07;14.50;99.90
6293;DHT22;3179;54.350;10.102;2023-05-07T10:17:36;14.60;99.90
6293;DHT22;3179;54.350;10.102;2023-05-07T10:20:04;14.80;99.90
6293;DHT22;3179;54.350;10.102;2023-05-07T10:22:36;14.90;99.90
6293;DHT22;3179;54.350;10.102;2023-05-07T10:25:06;15.00;99.90
6293;DHT22;3179;54.350;10.102;2023-05-07T10:27:33;15.00;99.90
6293;DHT22;3179;54.350;10.102;2023-05-07T10:30:06;14.90;99.90
6293;DHT22;3179;54.350;10.102;2023-05-07T10:32:39;15.00;99.90
6293;DHT22;3179;54.350;10.102;2023-05-07T10:35:10;15.10;99.90
6293;DHT22;3179;54.350;10.102;2023-05-07T10:37:39;15.20;99.90
6293;DHT22;3179;54.350;10.102;2023-05-07T10:40:07;15.40;99.90
6293;DHT22;3179;54.350;10.102;2023-05-07T10:42:35;15.50;99.90
6293;DHT22;3179;54.350;10.102;2023-05-07T10:45:12;15.50;99.90
6293;DHT22;3179;54.350;10.102;2023-05-07T10:48:06;15.70;99.90
6293;DHT22;3179;54.350;10.102;2023-05-07T10:50:33;15.70;99.90
6293;DHT22;3179;54.350;10.102;2023-05-07T10:53:23;15.80;99.90
6293;DHT22;3179;54.350;10.102;2023-05-07T10:56:23;16.00;99.90
6293;DHT22;3179;54.350;10.102;2023-05-07T10:58:50;16.20;99.90
6293;DHT22;3179;54.350;10.102;2023-05-07T11:01:49;16.30;99.90
6293;DHT22;3179;54.350;10.102;2023-05-07T11:04:17;16.40;99.90
6293;DHT22;3179;54.350;10.102;2023-05-07T11:10:02;16.40;99.90
6293;DHT22;3179;54.350;10.102;2023-05-07T11:12:50;16.30;99.90
6293;DHT22;3179;54.350;10.102;2023-05-07T11:15:33;16.30;99.90
6293;DHT22;3179;54.350;10.102;2023-05-07T11:18:00;16.40;99.90
6293;DHT22;3179;54.350;10.102;2023-05-07T11:20:49;16.40;99.90
6293;DHT22;3179;54.350;10.102;2023-05-07T11:23:55;16.50;99.90
6293;DHT22;3179;54.350;10.102;2023-05-07T11:26:24;16.50;99.90
6293;DHT22;3179;54.350;10.102;2023-05-07T11:28:52;16.40;99.90
6293;DHT22;3179;54.350;10.102;2023-05-07T11:31:25;16.30;99.90
6293;DHT22;3179;54.350;10.102;2023-05-07T11:33:54;16.40;99.90
6293;DHT22;3179;54.350;10.102;2023-05-07T11:36:23;16.50;99.90
6293;DHT22;3179;54.350;10.102;2023-05-07T11:38:51;16.50;99.90
6293;DHT22;3179;54.350;10.102;2023-05-07T11:41:18;16.60;99.90
6293;DHT22;3179;54.350;10.102;2023-05-07T11:43:57;16.50;99.90
6293;DHT22;3179;54.350;10.102;2023-05-07T11:46:24;16.60;99.90
6293;DHT22;3179;54.350;10.102;2023-05-07T11:48:51;16.70;99.90
6293;DHT22;3179;54.350;10.102;2023-05-07T11:51:23;16.70;99.90
6293;DHT22;3179;54.350;10.102;2023-05-07T11:53:52;16.80;99.90
6293;DHT22;3179;54.350;10.102;2023-05-07T11:56:19;16.90;99.90
6293;DHT22;3179;54.350;10.102;2023-05-07T11:58:48;16.90;99.90
6293;DHT22;3179;54.350;10.102;2023-05-07T12:01:17;17.10;99.90
6293;DHT22;3179;54.350;10.102;2023-05-07T12:03:45;17.20;99.90
6293;DHT22;3179;54.350;10.102;2023-05-07T12:06:13;17.40;99.90
6293;DHT22;3179;54.350;10.102;2023-05-07T12:08:42;17.50;99.90
6293;DHT22;3179;54.350;10.102;2023-05-07T12:11:10;17.50;99.90
6293;DHT22;3179;54.350;10.102;2023-05-07T12:13:39;17.50;99.90
6293;DHT22;3179;54.350;10.102;2023-05-07T12:16:06;17.50;99.90
6293;DHT22;3179;54.350;10.102;2023-05-07T12:18:35;17.60;99.90
6293;DHT22;3179;54.350;10.102;2023-05-07T12:21:03;17.80;99.90
6293;DHT22;3179;54.350;10.102;2023-05-07T12:23:30;17.90;99.90
6293;DHT22;3179;54.350;10.102;2023-05-07T12:25:59;18.00;99.90
6293;DHT22;3179;54.350;10.102;2023-05-07T12:28:26;18.00;99.90
6293;DHT22;3179;54.350;10.102;2023-05-07T12:30:53;17.90;99.90
6293;DHT22;3179;54.350;10.102;2023-05-07T12:33:24;17.90;99.90
6293;DHT22;3179;54.350;10.102;2023-05-07T12:35:53;17.80;99.90
6293;DHT22;3179;54.350;10.102;2023-05-07T12:38:20;17.70;99.90
6293;DHT22;3179;54.350;10.102;2023-05-07T12:40:48;17.60;99.90
6293;DHT22;3179;54.350;10.102;2023-05-07T12:43:18;17.60;99.90
6293;DHT22;3179;54.350;10.102;2023-05-07T12:45:46;17.60;99.90
6293;DHT22;3179;54.350;10.102;2023-05-07T12:48:13;17.60;99.90
6293;DHT22;3179;54.350;10.102;2023-05-07T12:50:40;17.60;99.90
6293;DHT22;3179;54.350;10.102;2023-05-07T12:53:09;17.80;99.90
6293;DHT22;3179;54.350;10.102;2023-05-07T12:55:46;17.90;99.90
6293;DHT22;3179;54.350;10.102;2023-05-07T12:58:18;18.00;99.90
6293;DHT22;3179;54.350;10.102;2023-05-07T13:00:48;18.00;99.90
6293;DHT22;3179;54.350;10.102;2023-05-07T13:03:21;18.00;99.90
6293;DHT22;3179;54.350;10.102;2023-05-07T13:05:49;18.00;99.90
6293;DHT22;3179;54.350;10.102;2023-05-07T13:08:24;18.00;99.90
6293;DHT22;3179;54.350;10.102;2023-05-07T13:10:51;18.00;99.90
6293;DHT22;3179;54.350;10.102;2023-05-07T13:13:19;18.00;99.90
6293;DHT22;3179;54.350;10.102;2023-05-07T13:15:46;18.10;99.90
6293;DHT22;3179;54.350;10.102;2023-05-07T13:18:12;18.20;99.90
6293;DHT22;3179;54.350;10.102;2023-05-07T13:20:39;18.20;99.90
6293;DHT22;3179;54.350;10.102;2023-05-07T13:23:06;18.20;99.90
6293;DHT22;3179;54.350;10.102;2023-05-07T13:25:33;18.20;99.90
6293;DHT22;3179;54.350;10.102;2023-05-07T13:27:59;18.20;99.80
6293;DHT22;3179;54.350;10.102;2023-05-07T13:30:28;18.20;99.80
6293;DHT22;3179;54.350;10.102;2023-05-07T13:32:55;18.40;99.70
6293;DHT22;3179;54.350;10.102;2023-05-07T13:35:22;18.50;99.80
6293;DHT22;3179;54.350;10.102;2023-05-07T13:37:49;18.50;99.50
6293;DHT22;3179;54.350;10.102;2023-05-07T13:40:17;18.60;99.50
6293;DHT22;3179;54.350;10.102;2023-05-07T13:42:45;18.90;99.70
6293;DHT22;3179;54.350;10.102;2023-05-07T13:45:11;19.20;99.60
6293;DHT22;3179;54.350;10.102;2023-05-07T13:47:40;19.30;99.30
6293;DHT22;3179;54.350;10.102;2023-05-07T13:50:08;19.30;99.00
6293;DHT22;3179;54.350;10.102;2023-05-07T13:52:36;19.10;98.80
6293;DHT22;3179;54.350;10.102;2023-05-07T13:55:04;19.00;99.00
6293;DHT22;3179;54.350;10.102;2023-05-07T13:57:31;18.90;98.90
6293;DHT22;3179;54.350;10.102;2023-05-07T13:59:58;19.20;99.00
6293;DHT22;3179;54.350;10.102;2023-05-07T14:02:24;19.20;98.40
6293;DHT22;3179;54.350;10.102;2023-05-07T14:04:52;19.10;98.60
6293;DHT22;3179;54.350;10.102;2023-05-07T14:07:20;19.00;98.50
6293;DHT22;3179;54.350;10.102;2023-05-07T14:09:46;18.90;98.60
6293;DHT22;3179;54.350;10.102;2023-05-07T14:12:13;18.90;98.60
6293;DHT22;3179;54.350;10.102;2023-05-07T14:14:40;18.90;98.60
6293;DHT22;3179;54.350;10.102;2023-05-07T14:17:07;18.90;98.90
6293;DHT22;3179;54.350;10.102;2023-05-07T14:19:34;19.00;98.90
6293;DHT22;3179;54.350;10.102;2023-05-07T14:22:02;19.10;98.40
6293;DHT22;3179;54.350;10.102;2023-05-07T14:24:29;19.20;98.00
6293;DHT22;3179;54.350;10.102;2023-05-07T14:26:56;19.10;98.40
6293;DHT22;3179;54.350;10.102;2023-05-07T14:29:22;19.10;98.70
6293;DHT22;3179;54.350;10.102;2023-05-07T14:31:49;19.20;98.30
6293;DHT22;3179;54.350;10.102;2023-05-07T14:34:16;19.30;98.30
6293;DHT22;3179;54.350;10.102;2023-05-07T14:36:43;19.50;98.30
6293;DHT22;3179;54.350;10.102;2023-05-07T14:39:11;20.00;97.80
6293;DHT22;3179;54.350;10.102;2023-05-07T14:41:38;20.00;97.80
6293;DHT22;3179;54.350;10.102;2023-05-07T14:44:05;19.80;97.70
6293;DHT22;3179;54.350;10.102;2023-05-07T14:46:32;19.70;97.60
6293;DHT22;3179;54.350;10.102;2023-05-07T14:48:58;20.20;97.70
6293;DHT22;3179;54.350;10.102;2023-05-07T14:51:25;20.10;97.40
6293;DHT22;3179;54.350;10.102;2023-05-07T14:53:54;20.50;97.30
6293;DHT22;3179;54.350;10.102;2023-05-07T14:56:22;20.80;97.20
6293;DHT22;3179;54.350;10.102;2023-05-07T14:58:49;20.60;97.10
6293;DHT22;3179;54.350;10.102;2023-05-07T15:01:16;20.50;97.00
6293;DHT22;3179;54.350;10.102;2023-05-07T15:03:42;20.50;97.10
6293;DHT22;3179;54.350;10.102;2023-05-07T15:06:09;20.90;97.30
6293;DHT22;3179;54.350;10.102;2023-05-07T15:08:36;21.20;97.10
6293;DHT22;3179;54.350;10.102;2023-05-07T15:11:03;21.10;96.70
6293;DHT22;3179;54.350;10.102;2023-05-07T15:13:31;21.10;97.00
6293;DHT22;3179;54.350;10.102;2023-05-07T15:15:58;21.30;97.00
6293;DHT22;3179;54.350;10.102;2023-05-07T15:18:24;21.30;96.80
6293;DHT22;3179;54.350;10.102;2023-05-07T15:20:51;21.40;96.60
6293;DHT22;3179;54.350;10.102;2023-05-07T15:23:18;21.90;96.20
6293;DHT22;3179;54.350;10.102;2023-05-07T15:25:45;22.10;95.60
6293;DHT22;3179;54.350;10.102;2023-05-07T15:28:12;22.60;95.30
6293;DHT22;3179;54.350;10.102;2023-05-07T15:30:40;22.70;94.90
6293;DHT22;3179;54.350;10.102;2023-05-07T15:33:07;22.50;95.00
6293;DHT22;3179;54.350;10.102;2023-05-07T15:35:33;22.60;95.40
6293;DHT22;3179;54.350;10.102;2023-05-07T15:38:00;22.20;95.00
6293;DHT22;3179;54.350;10.102;2023-05-07T15:40:29;21.80;95.00
6293;DHT22;3179;54.350;10.102;2023-05-07T15:42:55;21.50;94.90
6293;DHT22;3179;54.350;10.102;2023-05-07T15:45:23;21.10;94.80
6293;DHT22;3179;54.350;10.102;2023-05-07T15:47:51;20.90;94.90
6293;DHT22;3179;54.350;10.102;2023-05-07T15:50:18;20.60;94.70
6293;DHT22;3179;54.350;10.102;2023-05-07T15:52:45;20.60;95.10